createdAt,value
2022-10-19T00:01:15.642Z,86.24
2022-10-19T00:03:45.854Z,86.27
2022-10-19T00:06:25.900Z,86.30
2022-10-19T00:08:57.044Z,86.35
2022-10-19T00:11:26.330Z,86.23
2022-10-19T00:13:56.260Z,86.19
2022-10-19T00:16:27.028Z,86.33
2022-10-19T00:19:04.580Z,86.71
2022-10-19T00:21:33.155Z,86.79
2022-10-19T00:24:01.278Z,86.78
2022-10-19T00:26:29.241Z,86.72
2022-10-19T00:28:58.357Z,86.79
2022-10-19T00:31:26.616Z,86.72
2022-10-19T00:33:56.918Z,86.96
2022-10-19T00:36:27.764Z,87.02
2022-10-19T00:38:57.173Z,87.11
2022-10-19T00:41:27.714Z,87.09
2022-10-19T00:44:01.968Z,86.87
2022-10-19T00:46:33.174Z,87.16
2022-10-19T00:49:10.814Z,86.91
2022-10-19T00:51:48.864Z,86.89
2022-10-19T00:54:18.747Z,86.75
2022-10-19T00:56:49.592Z,86.64
2022-10-19T00:59:20.164Z,86.53
2022-10-19T01:01:50.068Z,86.76
2022-10-19T01:04:21.332Z,86.83
2022-10-19T01:09:22.887Z,87.08
2022-10-19T01:12:12.169Z,86.97
2022-10-19T01:14:50.264Z,86.88
2022-10-19T01:17:44.505Z,87.19
2022-10-19T01:20:18.535Z,86.87
2022-10-19T01:23:00.120Z,87.09
2022-10-19T01:25:47.006Z,86.81
2022-10-19T01:28:28.891Z,86.98
2022-10-19T01:31:22.799Z,87.10
2022-10-19T01:34:09.937Z,86.79
2022-10-19T01:36:59.282Z,86.74
2022-10-19T01:39:51.764Z,86.65
2022-10-19T01:42:26.647Z,86.57
2022-10-19T01:45:00.526Z,86.67
2022-10-19T01:47:37.350Z,86.65
2022-10-19T01:50:08.525Z,86.53
2022-10-19T01:52:39.873Z,86.44
2022-10-19T01:55:13.297Z,86.53
2022-10-19T01:57:47.003Z,86.64
2022-10-19T02:00:16.744Z,86.50
2022-10-19T02:03:25.059Z,86.32
2022-10-19T02:05:55.809Z,86.50
2022-10-19T02:08:32.064Z,86.41
2022-10-19T02:11:01.912Z,86.59
2022-10-19T02:13:32.154Z,86.64
2022-10-19T02:16:03.995Z,86.67
2022-10-19T02:18:36.515Z,86.46
2022-10-19T02:21:05.182Z,86.44
2022-10-19T02:23:34.112Z,86.47
2022-10-19T02:26:02.538Z,86.38
2022-10-19T02:28:31.684Z,86.58
2022-10-19T02:31:00.452Z,86.37
2022-10-19T02:33:29.823Z,86.48
2022-10-19T02:35:58.816Z,86.42
2022-10-19T02:38:28.331Z,86.58
2022-10-19T02:41:15.953Z,86.43
2022-10-19T02:43:49.111Z,86.48
2022-10-19T02:46:33.255Z,86.16
2022-10-19T02:49:03.894Z,86.41
2022-10-19T02:51:36.505Z,86.17
2022-10-19T02:54:07.287Z,86.20
2022-10-19T02:56:35.552Z,86.29
2022-10-19T02:59:04.927Z,86.41
2022-10-19T03:01:33.139Z,86.60
2022-10-19T03:04:01.195Z,86.48
2022-10-19T03:06:29.224Z,86.34
2022-10-19T03:08:57.271Z,86.49
2022-10-19T03:11:25.312Z,86.53
2022-10-19T03:13:53.571Z,86.62
2022-10-19T03:16:21.688Z,86.55
2022-10-19T03:18:50.563Z,86.88
2022-10-19T03:21:19.884Z,86.67
2022-10-19T03:23:48.097Z,86.72
2022-10-19T03:26:17.406Z,86.77
2022-10-19T03:28:46.103Z,86.77
2022-10-19T03:31:14.295Z,86.60
2022-10-19T03:33:42.338Z,86.59
2022-10-19T03:36:23.675Z,86.75
2022-10-19T03:38:57.073Z,86.85
2022-10-19T03:41:27.927Z,86.88
2022-10-19T03:43:56.568Z,86.77
2022-10-19T03:46:25.031Z,86.81
2022-10-19T03:48:54.037Z,86.98
2022-10-19T03:51:25.168Z,86.93
2022-10-19T03:53:57.539Z,87.13
2022-10-19T03:56:27.299Z,86.81
2022-10-19T03:58:57.078Z,86.73
2022-10-19T04:01:30.780Z,86.49
2022-10-19T04:04:04.384Z,86.63
2022-10-19T04:06:36.437Z,86.83
2022-10-19T04:09:07.139Z,87.09
2022-10-19T04:11:36.105Z,86.91
2022-10-19T04:14:04.845Z,87.19
2022-10-19T04:16:33.335Z,87.34
2022-10-19T04:19:01.417Z,87.80
2022-10-19T04:21:35.954Z,88.20
2022-10-19T04:24:15.765Z,88.40
2022-10-19T04:26:46.831Z,88.63
2022-10-19T04:29:16.231Z,88.86
2022-10-19T04:31:44.811Z,89.05
2022-10-19T04:34:12.959Z,89.21
2022-10-19T04:36:40.982Z,89.31
2022-10-19T04:39:09.194Z,89.29
2022-10-19T04:41:38.393Z,89.41
2022-10-19T04:44:07.094Z,89.51
2022-10-19T04:46:35.433Z,89.65
2022-10-19T04:49:06.074Z,89.83
2022-10-19T04:51:34.832Z,89.87
2022-10-19T04:54:03.707Z,90.08
2022-10-19T04:56:32.618Z,90.23
2022-10-19T04:59:01.347Z,90.04
2022-10-19T05:01:31.570Z,90.14
2022-10-19T05:04:01.512Z,90.23
2022-10-19T05:06:31.381Z,90.28
2022-10-19T05:09:00.498Z,90.22
2022-10-19T05:11:29.281Z,90.41
2022-10-19T05:13:57.468Z,90.38
2022-10-19T05:16:25.947Z,90.45
2022-10-19T05:18:56.895Z,90.36
2022-10-19T05:21:25.222Z,90.36
2022-10-19T05:23:54.624Z,90.41
2022-10-19T05:26:25.083Z,90.46
2022-10-19T05:28:56.955Z,90.34
2022-10-19T05:31:31.106Z,90.46
2022-10-19T05:34:00.495Z,90.42
2022-10-19T05:36:34.662Z,90.57
2022-10-19T05:39:06.032Z,90.41
2022-10-19T05:41:34.915Z,90.65
2022-10-19T05:44:04.636Z,90.80
2022-10-19T05:46:34.133Z,90.57
2022-10-19T05:49:02.281Z,90.63
2022-10-19T05:51:30.370Z,90.61
2022-10-19T05:53:59.416Z,90.65
2022-10-19T05:56:29.726Z,90.67
2022-10-19T05:59:05.518Z,90.68
2022-10-19T06:01:35.215Z,90.53
2022-10-19T06:04:04.206Z,90.77
2022-10-19T06:06:32.415Z,90.63
2022-10-19T06:09:00.746Z,90.63
2022-10-19T06:11:30.888Z,90.69
2022-10-19T06:14:00.951Z,90.60
2022-10-19T06:16:30.944Z,90.54
2022-10-19T06:18:59.855Z,90.49
2022-10-19T06:21:30.655Z,90.56
2022-10-19T06:24:02.443Z,90.47
2022-10-19T06:26:32.516Z,90.50
2022-10-19T06:29:02.059Z,90.63
2022-10-19T06:31:31.811Z,90.63
2022-10-19T06:33:59.933Z,90.63
2022-10-19T06:36:31.156Z,90.52
2022-10-19T06:39:01.786Z,90.55
2022-10-19T06:41:31.418Z,90.54
2022-10-19T06:44:01.829Z,90.57
2022-10-19T06:46:29.981Z,90.41
2022-10-19T06:49:01.249Z,90.38
2022-10-19T06:51:32.448Z,90.01
2022-10-19T06:54:00.600Z,90.23
2022-10-19T06:56:28.678Z,90.06
2022-10-19T06:58:58.189Z,89.86
2022-10-19T07:01:26.421Z,89.81
2022-10-19T07:03:55.320Z,89.96
2022-10-19T07:06:24.023Z,90.05
2022-10-19T07:08:53.137Z,90.04
2022-10-19T07:11:25.021Z,89.79
2022-10-19T07:13:53.486Z,89.86
2022-10-19T07:16:22.465Z,89.87
2022-10-19T07:18:52.705Z,89.86
2022-10-19T07:21:23.041Z,89.50
2022-10-19T07:23:51.308Z,89.54
2022-10-19T07:26:26.907Z,89.46
2022-10-19T07:28:57.420Z,89.39
2022-10-19T07:31:27.690Z,89.26
2022-10-19T07:34:01.143Z,88.96
2022-10-19T07:36:31.261Z,89.21
2022-10-19T07:39:02.373Z,89.16
2022-10-19T07:41:30.395Z,89.03
2022-10-19T07:43:58.612Z,88.81
2022-10-19T07:46:29.331Z,88.72
2022-10-19T07:48:57.591Z,88.94
2022-10-19T07:51:26.716Z,88.96
2022-10-19T07:53:54.887Z,88.83
2022-10-19T07:56:25.205Z,88.65
2022-10-19T07:58:55.962Z,88.32
2022-10-19T08:01:41.081Z,88.21
2022-10-19T08:06:57.699Z,87.10
2022-10-19T08:09:52.808Z,86.87
2022-10-19T08:12:15.578Z,86.83
2022-10-19T08:14:43.935Z,86.48
2022-10-19T08:17:16.665Z,86.67
2022-10-19T08:19:46.016Z,86.33
2022-10-19T08:22:14.093Z,86.56
2022-10-19T08:24:42.068Z,86.65
2022-10-19T08:27:10.445Z,86.17
2022-10-19T08:29:38.407Z,86.00
2022-10-19T08:32:06.412Z,85.76
2022-10-19T08:34:35.072Z,85.93
2022-10-19T08:37:10.352Z,85.90
2022-10-19T08:39:48.435Z,85.89
2022-10-19T08:42:21.392Z,85.70
2022-10-19T08:44:55.930Z,85.34
2022-10-19T08:47:39.208Z,84.92
2022-10-19T08:50:24.011Z,84.91
2022-10-19T08:53:05.159Z,84.98
2022-10-19T08:55:58.634Z,84.55
2022-10-19T08:58:36.842Z,84.27
2022-10-19T09:01:17.003Z,83.99
2022-10-19T09:03:59.846Z,83.78
2022-10-19T09:06:45.511Z,83.47
2022-10-19T09:09:14.734Z,84.14
2022-10-19T09:11:47.436Z,84.82
2022-10-19T09:14:44.911Z,84.77
2022-10-19T09:17:16.037Z,83.90
2022-10-19T09:19:44.113Z,83.67
2022-10-19T09:22:20.902Z,83.31
2022-10-19T09:24:57.677Z,83.31
2022-10-19T09:27:33.505Z,82.41
2022-10-19T09:30:05.512Z,81.73
2022-10-19T09:32:38.097Z,80.89
2022-10-19T09:35:22.917Z,80.76
2022-10-19T09:37:51.661Z,80.72
2022-10-19T09:40:28.506Z,80.58
2022-10-19T09:42:58.509Z,81.30
2022-10-19T09:45:35.602Z,80.94
2022-10-19T09:48:14.261Z,79.93
2022-10-19T09:50:50.697Z,79.35
2022-10-19T09:53:21.285Z,78.90
2022-10-19T09:55:56.187Z,78.92
2022-10-19T09:58:29.235Z,79.33
2022-10-19T10:01:01.948Z,78.84
2022-10-19T10:03:36.354Z,78.82
2022-10-19T10:06:08.372Z,79.03
2022-10-19T10:08:40.067Z,78.52
2022-10-19T10:11:14.596Z,78.39
2022-10-19T10:13:48.571Z,78.58
2022-10-19T10:16:20.440Z,78.85
2022-10-19T10:18:54.467Z,79.67
2022-10-19T10:21:32.127Z,80.24
2022-10-19T10:24:12.826Z,80.49
2022-10-19T10:26:47.628Z,80.60
2022-10-19T10:29:19.731Z,80.26
2022-10-19T10:31:52.301Z,79.98
2022-10-19T10:34:45.677Z,80.15
2022-10-19T10:37:35.083Z,80.28
2022-10-19T10:40:05.444Z,80.59
2022-10-19T10:42:36.696Z,80.75
2022-10-19T10:45:16.431Z,80.98
2022-10-19T10:47:48.383Z,80.71
2022-10-19T10:50:21.911Z,81.09
2022-10-19T10:53:02.373Z,81.01
2022-10-19T10:55:33.464Z,81.46
2022-10-19T10:58:16.714Z,81.80
2022-10-19T11:00:45.512Z,82.42
2022-10-19T11:03:23.867Z,82.69
2022-10-19T11:05:57.637Z,82.87
2022-10-19T11:08:49.419Z,83.16
2022-10-19T11:11:22.696Z,82.86
2022-10-19T11:13:59.192Z,83.16
2022-10-19T11:16:32.696Z,82.85
2022-10-19T11:19:22.959Z,82.88
2022-10-19T11:22:22.334Z,82.84
2022-10-19T11:25:25.145Z,82.99
2022-10-19T11:27:56.317Z,82.88
2022-10-19T11:30:25.660Z,83.38
2022-10-19T11:33:12.511Z,83.48
2022-10-19T11:36:02.355Z,83.52
2022-10-19T11:39:09.073Z,83.61
2022-10-19T11:41:53.516Z,83.00
2022-10-19T11:44:39.173Z,83.20
2022-10-19T11:47:32.269Z,83.66
2022-10-19T11:50:29.602Z,83.67
2022-10-19T11:53:18.607Z,83.47
2022-10-19T11:56:19.548Z,83.77
2022-10-19T11:58:54.982Z,83.12
2022-10-19T12:01:54.515Z,82.70
2022-10-19T12:04:22.757Z,82.74
2022-10-19T12:07:30.787Z,82.75
2022-10-19T12:10:17.047Z,82.85
2022-10-19T12:12:51.738Z,82.52
2022-10-19T12:15:31.829Z,82.35
2022-10-19T12:18:22.690Z,82.20
2022-10-19T12:20:54.604Z,82.39
2022-10-19T12:23:37.651Z,82.59
2022-10-19T12:26:14.848Z,82.63
2022-10-19T12:28:49.602Z,82.80
2022-10-19T12:31:19.001Z,83.09
2022-10-19T12:33:59.416Z,83.47
2022-10-19T12:36:51.845Z,83.77
2022-10-19T12:39:41.334Z,84.35
2022-10-19T12:42:32.643Z,84.92
2022-10-19T12:45:04.228Z,84.89
2022-10-19T12:47:32.804Z,85.16
2022-10-19T12:50:01.434Z,85.12
2022-10-19T12:52:37.060Z,84.64
2022-10-19T12:55:26.240Z,84.22
2022-10-19T12:58:01.448Z,84.03
2022-10-19T13:00:36.449Z,83.45
2022-10-19T13:03:15.562Z,82.94
2022-10-19T13:05:59.231Z,82.55
2022-10-19T13:08:37.860Z,82.58
2022-10-19T13:11:14.815Z,82.72
2022-10-19T13:13:55.679Z,82.94
2022-10-19T13:16:30.007Z,83.11
2022-10-19T13:19:13.557Z,82.80
2022-10-19T13:21:51.559Z,82.38
2022-10-19T13:27:08.885Z,81.76
2022-10-19T13:29:44.757Z,81.84
2022-10-19T13:32:31.076Z,82.10
2022-10-19T13:35:24.378Z,82.35
2022-10-19T13:38:19.563Z,82.68
2022-10-19T13:40:47.837Z,82.85
2022-10-19T13:43:22.396Z,82.58
2022-10-19T13:46:16.324Z,82.75
2022-10-19T13:49:06.151Z,83.01
2022-10-19T13:52:03.697Z,82.82
2022-10-19T13:54:37.552Z,82.80
2022-10-19T13:57:14.565Z,83.03
2022-10-19T13:59:50.090Z,83.28
2022-10-19T14:02:30.892Z,83.44
2022-10-19T14:05:10.921Z,83.46
2022-10-19T14:08:01.377Z,83.67
2022-10-19T14:10:32.745Z,83.95
2022-10-19T14:13:05.608Z,83.86
2022-10-19T14:15:35.653Z,84.01
2022-10-19T14:18:05.899Z,83.63
2022-10-19T14:20:38.690Z,83.60
2022-10-19T14:23:28.196Z,83.82
2022-10-19T14:25:56.471Z,83.53
2022-10-19T14:28:25.421Z,83.79
2022-10-19T14:31:01.431Z,83.67
2022-10-19T14:33:33.662Z,83.82
2022-10-19T14:36:02.626Z,83.93
2022-10-19T14:38:37.345Z,84.02
2022-10-19T14:41:17.774Z,83.79
2022-10-19T14:43:46.234Z,83.94
2022-10-19T14:46:15.510Z,84.08
2022-10-19T14:48:46.066Z,84.08
2022-10-19T14:51:56.253Z,84.01
2022-10-19T14:54:38.875Z,84.13
2022-10-19T14:57:12.372Z,84.47
2022-10-19T14:59:49.905Z,84.27
2022-10-19T15:02:20.334Z,84.21
2022-10-19T15:04:49.562Z,84.42
2022-10-19T15:07:28.915Z,84.74
2022-10-19T15:10:00.845Z,84.35
2022-10-19T15:12:40.356Z,84.47
2022-10-19T15:15:13.891Z,84.59
2022-10-19T15:18:25.207Z,84.59
2022-10-19T15:21:13.664Z,84.57
2022-10-19T15:23:45.684Z,84.89
2022-10-19T15:26:19.569Z,84.85
2022-10-19T15:28:48.773Z,84.98
2022-10-19T15:31:28.994Z,84.87
2022-10-19T15:34:01.869Z,84.86
2022-10-19T15:36:31.718Z,84.86
2022-10-19T15:39:25.021Z,84.72
2022-10-19T15:41:53.820Z,84.58
2022-10-19T15:44:54.537Z,84.41
2022-10-19T15:47:24.793Z,84.34
2022-10-19T15:49:59.157Z,84.46
2022-10-19T15:52:33.656Z,84.28
2022-10-19T15:55:02.061Z,84.24
2022-10-19T15:57:36.513Z,84.37
2022-10-19T16:00:08.424Z,84.31
2022-10-19T16:02:36.687Z,84.46
2022-10-19T16:07:38.576Z,84.24
2022-10-19T16:10:08.324Z,84.18
2022-10-19T16:12:36.366Z,84.29
2022-10-19T16:15:05.174Z,84.10
2022-10-19T16:17:33.606Z,84.33
2022-10-19T16:20:01.774Z,84.22
2022-10-19T16:22:29.956Z,84.35
2022-10-19T16:24:58.220Z,84.13
2022-10-19T16:27:26.164Z,84.34
2022-10-19T16:29:54.722Z,84.55
2022-10-19T16:32:22.749Z,84.79
2022-10-19T16:34:50.827Z,84.87
2022-10-19T16:37:18.904Z,85.04
2022-10-19T16:39:46.864Z,84.85
2022-10-19T16:42:15.137Z,84.72
2022-10-19T16:44:44.427Z,85.11
2022-10-19T16:47:13.178Z,85.22
2022-10-19T16:49:41.198Z,85.28
2022-10-19T16:52:14.227Z,85.22
2022-10-19T16:54:42.309Z,85.32
2022-10-19T16:57:10.361Z,85.13
2022-10-19T16:59:38.413Z,84.88
2022-10-19T17:02:06.442Z,84.84
2022-10-19T17:04:35.930Z,84.59
2022-10-19T17:07:06.230Z,84.44
2022-10-19T17:09:41.744Z,84.25
2022-10-19T17:12:11.451Z,84.21
2022-10-19T17:14:42.207Z,83.85
2022-10-19T17:17:11.313Z,83.99
2022-10-19T17:19:39.672Z,83.72
2022-10-19T17:22:07.800Z,83.67
2022-10-19T17:24:37.454Z,83.94
2022-10-19T17:27:05.710Z,84.07
2022-10-19T17:29:33.842Z,84.14
2022-10-19T17:32:01.786Z,83.95
2022-10-19T17:34:29.878Z,84.03
2022-10-19T17:36:58.223Z,83.82
2022-10-19T17:39:29.801Z,83.53
2022-10-19T17:42:03.566Z,83.26
2022-10-19T17:44:31.971Z,83.29
2022-10-19T17:47:01.182Z,83.40
2022-10-19T17:49:30.168Z,83.15
2022-10-19T17:51:58.700Z,82.73
2022-10-19T17:54:26.988Z,82.86
2022-10-19T17:56:55.303Z,82.71
2022-10-19T17:59:30.505Z,82.71
2022-10-19T18:02:05.244Z,82.55
2022-10-19T18:04:33.397Z,82.54
2022-10-19T18:07:01.752Z,82.31
2022-10-19T18:09:30.084Z,82.29
2022-10-19T18:11:58.194Z,82.37
2022-10-19T18:14:26.233Z,82.48
2022-10-19T18:16:54.888Z,82.35
2022-10-19T18:19:23.071Z,82.19
2022-10-19T18:21:52.405Z,82.04
2022-10-19T18:24:21.480Z,82.07
2022-10-19T18:26:51.145Z,82.02
2022-10-19T18:29:22.554Z,82.01
2022-10-19T18:31:52.508Z,82.12
2022-10-19T18:34:24.578Z,81.81
2022-10-19T18:36:53.517Z,81.79
2022-10-19T18:39:21.966Z,81.62
2022-10-19T18:41:54.756Z,81.45
2022-10-19T18:44:26.548Z,81.64
2022-10-19T18:46:57.048Z,81.50
2022-10-19T18:49:25.685Z,81.70
2022-10-19T18:51:55.692Z,81.63
2022-10-19T18:54:27.939Z,81.61
2022-10-19T18:56:56.432Z,81.51
2022-10-19T18:59:24.615Z,81.69
2022-10-19T19:01:52.811Z,81.67
2022-10-19T19:04:20.903Z,81.76
2022-10-19T19:06:48.951Z,81.59
2022-10-19T19:09:18.879Z,81.56
2022-10-19T19:11:47.024Z,81.59
2022-10-19T19:14:18.273Z,81.85
2022-10-19T19:16:47.417Z,81.90
2022-10-19T19:19:17.034Z,81.69
2022-10-19T19:21:45.682Z,81.64
2022-10-19T19:24:18.299Z,81.66
2022-10-19T19:26:50.105Z,81.31
2022-10-19T19:29:19.816Z,81.40
2022-10-19T19:31:48.334Z,81.33
2022-10-19T19:34:16.565Z,81.14
2022-10-19T19:36:48.855Z,81.32
2022-10-19T19:39:20.696Z,81.37
2022-10-19T19:41:50.005Z,81.29
2022-10-19T19:44:18.432Z,81.33
2022-10-19T19:46:46.550Z,81.38
2022-10-19T19:49:14.755Z,81.20
2022-10-19T19:51:43.124Z,81.20
2022-10-19T19:54:12.454Z,81.15
2022-10-19T19:56:42.514Z,80.88
2022-10-19T19:59:12.383Z,80.57
2022-10-19T20:01:40.823Z,80.42
2022-10-19T20:04:09.628Z,80.32
2022-10-19T20:06:39.834Z,80.21
2022-10-19T20:09:08.980Z,80.41
2022-10-19T20:11:42.147Z,80.34
2022-10-19T20:14:11.711Z,80.34
2022-10-19T20:16:40.391Z,80.43
2022-10-19T20:19:12.344Z,80.38
2022-10-19T20:21:41.502Z,80.24
2022-10-19T20:24:10.007Z,80.07
2022-10-19T20:26:38.515Z,80.05
2022-10-19T20:29:06.956Z,79.90
2022-10-19T20:31:39.580Z,79.84
2022-10-19T20:34:13.693Z,79.79
2022-10-19T20:36:42.608Z,79.80
2022-10-19T20:39:11.141Z,79.70
2022-10-19T20:41:39.320Z,79.76
2022-10-19T20:44:07.547Z,79.61
2022-10-19T20:46:37.127Z,79.68
2022-10-19T20:49:05.561Z,80.00
2022-10-19T20:51:36.691Z,80.09
2022-10-19T20:54:08.526Z,80.29
2022-10-19T20:56:39.011Z,80.28
2022-10-19T20:59:13.284Z,80.29
2022-10-19T21:01:43.449Z,80.20
2022-10-19T21:04:13.922Z,80.10
2022-10-19T21:06:45.511Z,80.09
2022-10-19T21:09:16.796Z,79.80
2022-10-19T21:11:45.920Z,79.71
2022-10-19T21:14:16.809Z,79.45
2022-10-19T21:16:45.368Z,79.44
2022-10-19T21:19:18.020Z,79.41
2022-10-19T21:21:51.876Z,79.50
2022-10-19T21:24:23.403Z,79.51
2022-10-19T21:29:24.515Z,79.69
2022-10-19T21:31:53.549Z,79.60
2022-10-19T21:34:27.098Z,79.57
2022-10-19T21:36:56.228Z,79.66
2022-10-19T21:39:24.405Z,79.73
2022-10-19T21:41:52.409Z,79.58
2022-10-19T21:44:23.125Z,79.72
2022-10-19T21:46:51.349Z,79.71
2022-10-19T21:49:19.355Z,79.72
2022-10-19T21:51:53.894Z,79.88
2022-10-19T21:54:29.257Z,79.80
2022-10-19T21:56:58.595Z,79.70
2022-10-19T21:59:26.660Z,79.73
2022-10-19T22:01:56.426Z,79.72
2022-10-19T22:04:24.568Z,79.62
2022-10-19T22:06:52.710Z,79.79
2022-10-19T22:09:22.096Z,79.78
2022-10-19T22:11:50.382Z,79.69
2022-10-19T22:14:18.422Z,79.50
2022-10-19T22:16:46.564Z,79.31
2022-10-19T22:19:14.765Z,79.19
2022-10-19T22:21:42.759Z,79.17
2022-10-19T22:24:14.134Z,79.38
2022-10-19T22:26:44.927Z,79.57
2022-10-19T22:29:13.487Z,79.48
2022-10-19T22:31:42.189Z,79.54
2022-10-19T22:34:14.817Z,79.17
2022-10-19T22:36:43.794Z,78.92
2022-10-19T22:39:12.683Z,79.27
2022-10-19T22:41:40.713Z,79.57
2022-10-19T22:44:08.710Z,79.71
2022-10-19T22:46:36.874Z,79.67
2022-10-19T22:49:05.032Z,79.69
2022-10-19T22:51:33.755Z,79.38
2022-10-19T22:54:01.956Z,79.27
2022-10-19T22:56:30.058Z,79.24
2022-10-19T22:58:59.301Z,79.26
2022-10-19T23:01:27.716Z,79.28
2022-10-19T23:03:56.051Z,79.35
2022-10-19T23:06:24.633Z,79.51
2022-10-19T23:08:53.842Z,79.50
2022-10-19T23:11:22.362Z,79.62
2022-10-19T23:13:50.398Z,79.39
2022-10-19T23:16:18.621Z,79.53
2022-10-19T23:18:46.657Z,79.56
2022-10-19T23:21:15.400Z,79.50
2022-10-19T23:23:43.657Z,79.51
2022-10-19T23:26:17.757Z,79.39
2022-10-19T23:28:47.754Z,79.29
2022-10-19T23:31:19.126Z,79.26
2022-10-19T23:33:47.464Z,79.39
2022-10-19T23:36:20.782Z,79.41
2022-10-19T23:38:50.952Z,79.56
2022-10-19T23:41:20.591Z,79.43
2022-10-19T23:43:49.468Z,79.42
2022-10-19T23:46:17.935Z,79.51
2022-10-19T23:48:46.236Z,79.50
2022-10-19T23:51:17.465Z,79.34
2022-10-19T23:53:48.176Z,78.97
2022-10-19T23:56:17.912Z,79.09
2022-10-19T23:58:47.036Z,79.20
